sensor_id;sensor_type;location;lat;lon;timestamp;P1;durP1;ratioP1;P2;durP2;ratioP2
44116;SDS011;29781;49.480;8.512;2022-09-27T00:01:37;0.95;;;0.90;;
44116;SDS011;29781;49.480;8.512;2022-09-27T00:04:03;1.27;;;1.05;;
44116;SDS011;29781;49.480;8.512;2022-09-27T00:06:30;4.65;;;1.20;;
44116;SDS011;29781;49.480;8.512;2022-09-27T00:08:56;1.80;;;0.95;;
44116;SDS011;29781;49.480;8.512;2022-09-27T00:11:27;3.08;;;1.00;;
44116;SDS011;29781;49.480;8.512;2022-09-27T00:13:58;1.00;;;0.90;;
44116;SDS011;29781;49.480;8.512;2022-09-27T00:16:30;1.35;;;0.98;;
44116;SDS011;29781;49.480;8.512;2022-09-27T00:19:00;1.30;;;0.90;;
44116;SDS011;29781;49.480;8.512;2022-09-27T00:21:27;2.22;;;0.90;;
44116;SDS011;29781;49.480;8.512;2022-09-27T00:23:54;0.88;;;0.88;;
44116;SDS011;29781;49.480;8.512;2022-09-27T00:26:21;1.63;;;1.00;;
44116;SDS011;29781;49.480;8.512;2022-09-27T00:28:46;1.48;;;1.00;;
44116;SDS011;29781;49.480;8.512;2022-09-27T00:31:19;0.93;;;0.93;;
44116;SDS011;29781;49.480;8.512;2022-09-27T00:33:47;1.17;;;0.90;;
44116;SDS011;29781;49.480;8.512;2022-09-27T00:36:14;2.45;;;1.42;;
44116;SDS011;29781;49.480;8.512;2022-09-27T00:38:41;0.85;;;0.80;;
44116;SDS011;29781;49.480;8.512;2022-09-27T00:41:14;0.80;;;0.80;;
44116;SDS011;29781;49.480;8.512;2022-09-27T00:43:53;0.70;;;0.70;;
44116;SDS011;29781;49.480;8.512;2022-09-27T00:46:22;1.63;;;1.00;;
44116;SDS011;29781;49.480;8.512;2022-09-27T00:48:59;1.98;;;0.80;;
44116;SDS011;29781;49.480;8.512;2022-09-27T00:51:29;1.00;;;0.70;;
44116;SDS011;29781;49.480;8.512;2022-09-27T00:53:57;1.10;;;1.00;;
44116;SDS011;29781;49.480;8.512;2022-09-27T00:56:24;1.23;;;0.80;;
44116;SDS011;29781;49.480;8.512;2022-09-27T00:58:55;0.60;;;0.60;;
44116;SDS011;29781;49.480;8.512;2022-09-27T01:01:33;1.05;;;0.90;;
44116;SDS011;29781;49.480;8.512;2022-09-27T01:04:07;0.80;;;0.80;;
44116;SDS011;29781;49.480;8.512;2022-09-27T01:06:35;1.85;;;1.10;;
44116;SDS011;29781;49.480;8.512;2022-09-27T01:09:02;3.15;;;0.65;;
44116;SDS011;29781;49.480;8.512;2022-09-27T01:22:43;1.20;;;0.80;;
44116;SDS011;29781;49.480;8.512;2022-09-27T01:27:58;2.55;;;1.20;;
44116;SDS011;29781;49.480;8.512;2022-09-27T01:33:09;1.10;;;1.00;;
44116;SDS011;29781;49.480;8.512;2022-09-27T01:44:42;2.33;;;0.90;;
44116;SDS011;29781;49.480;8.512;2022-09-27T01:47:18;1.45;;;0.70;;
44116;SDS011;29781;49.480;8.512;2022-09-27T01:52:21;0.80;;;0.80;;
44116;SDS011;29781;49.480;8.512;2022-09-27T01:54:55;1.48;;;1.20;;
44116;SDS011;29781;49.480;8.512;2022-09-27T01:57:27;1.52;;;0.85;;
44116;SDS011;29781;49.480;8.512;2022-09-27T02:00:04;0.80;;;0.80;;
44116;SDS011;29781;49.480;8.512;2022-09-27T02:02:36;1.95;;;0.90;;
44116;SDS011;29781;49.480;8.512;2022-09-27T02:07:35;1.30;;;0.90;;
44116;SDS011;29781;49.480;8.512;2022-09-27T02:10:13;2.15;;;0.80;;
44116;SDS011;29781;49.480;8.512;2022-09-27T02:12:48;1.13;;;0.80;;
44116;SDS011;29781;49.480;8.512;2022-09-27T02:15:21;1.00;;;0.80;;
44116;SDS011;29781;49.480;8.512;2022-09-27T02:23:09;1.50;;;0.85;;
44116;SDS011;29781;49.480;8.512;2022-09-27T02:25:56;2.33;;;1.10;;
44116;SDS011;29781;49.480;8.512;2022-09-27T02:28:39;1.48;;;0.68;;
44116;SDS011;29781;49.480;8.512;2022-09-27T02:31:09;3.55;;;1.10;;
44116;SDS011;29781;49.480;8.512;2022-09-27T02:33:36;4.07;;;1.00;;
44116;SDS011;29781;49.480;8.512;2022-09-27T02:36:09;4.20;;;1.27;;
44116;SDS011;29781;49.480;8.512;2022-09-27T02:38:35;1.42;;;1.05;;
44116;SDS011;29781;49.480;8.512;2022-09-27T02:41:02;1.20;;;0.90;;
44116;SDS011;29781;49.480;8.512;2022-09-27T02:43:29;1.80;;;1.05;;
44116;SDS011;29781;49.480;8.512;2022-09-27T02:46:06;1.88;;;0.93;;
44116;SDS011;29781;49.480;8.512;2022-09-27T02:51:47;4.75;;;1.20;;
44116;SDS011;29781;49.480;8.512;2022-09-27T03:02:20;3.00;;;1.20;;
44116;SDS011;29781;49.480;8.512;2022-09-27T03:04:59;2.20;;;1.10;;
44116;SDS011;29781;49.480;8.512;2022-09-27T03:07:28;3.13;;;1.30;;
44116;SDS011;29781;49.480;8.512;2022-09-27T03:09:55;2.55;;;1.50;;
44116;SDS011;29781;49.480;8.512;2022-09-27T03:12:20;3.58;;;1.77;;
44116;SDS011;29781;49.480;8.512;2022-09-27T03:14:50;3.83;;;1.60;;
44116;SDS011;29781;49.480;8.512;2022-09-27T03:17:20;3.42;;;1.70;;
44116;SDS011;29781;49.480;8.512;2022-09-27T03:19:46;2.15;;;1.48;;
44116;SDS011;29781;49.480;8.512;2022-09-27T03:22:12;2.67;;;1.60;;
44116;SDS011;29781;49.480;8.512;2022-09-27T03:24:38;1.50;;;1.20;;
44116;SDS011;29781;49.480;8.512;2022-09-27T03:27:04;1.90;;;1.20;;
44116;SDS011;29781;49.480;8.512;2022-09-27T03:29:30;2.53;;;1.20;;
44116;SDS011;29781;49.480;8.512;2022-09-27T03:31:56;1.95;;;1.20;;
44116;SDS011;29781;49.480;8.512;2022-09-27T03:34:21;1.80;;;1.10;;
44116;SDS011;29781;49.480;8.512;2022-09-27T03:36:47;1.73;;;1.13;;
44116;SDS011;29781;49.480;8.512;2022-09-27T03:39:13;1.60;;;0.90;;
44116;SDS011;29781;49.480;8.512;2022-09-27T03:41:39;3.08;;;1.17;;
44116;SDS011;29781;49.480;8.512;2022-09-27T03:44:05;1.05;;;0.85;;
44116;SDS011;29781;49.480;8.512;2022-09-27T03:46:31;2.60;;;0.90;;
44116;SDS011;29781;49.480;8.512;2022-09-27T03:48:56;2.10;;;1.10;;
44116;SDS011;29781;49.480;8.512;2022-09-27T03:51:22;1.17;;;0.90;;
44116;SDS011;29781;49.480;8.512;2022-09-27T03:53:48;1.75;;;0.93;;
44116;SDS011;29781;49.480;8.512;2022-09-27T03:56:13;1.55;;;1.02;;
44116;SDS011;29781;49.480;8.512;2022-09-27T03:58:39;1.20;;;1.00;;
44116;SDS011;29781;49.480;8.512;2022-09-27T04:01:05;2.80;;;1.20;;
44116;SDS011;29781;49.480;8.512;2022-09-27T04:03:30;2.15;;;1.20;;
44116;SDS011;29781;49.480;8.512;2022-09-27T04:05:56;2.65;;;1.20;;
44116;SDS011;29781;49.480;8.512;2022-09-27T04:08:24;2.53;;;1.13;;
44116;SDS011;29781;49.480;8.512;2022-09-27T04:10:50;6.25;;;1.17;;
44116;SDS011;29781;49.480;8.512;2022-09-27T04:13:16;2.40;;;1.15;;
44116;SDS011;29781;49.480;8.512;2022-09-27T04:15:41;2.90;;;1.05;;
44116;SDS011;29781;49.480;8.512;2022-09-27T04:18:07;2.95;;;1.10;;
44116;SDS011;29781;49.480;8.512;2022-09-27T04:20:33;3.17;;;1.50;;
44116;SDS011;29781;49.480;8.512;2022-09-27T04:23:00;2.10;;;1.17;;
44116;SDS011;29781;49.480;8.512;2022-09-27T04:25:26;2.28;;;1.30;;
44116;SDS011;29781;49.480;8.512;2022-09-27T04:27:51;2.63;;;1.08;;
44116;SDS011;29781;49.480;8.512;2022-09-27T04:30:18;3.08;;;1.05;;
44116;SDS011;29781;49.480;8.512;2022-09-27T04:32:45;1.58;;;0.98;;
44116;SDS011;29781;49.480;8.512;2022-09-27T04:35:11;0.90;;;0.85;;
44116;SDS011;29781;49.480;8.512;2022-09-27T04:37:55;2.03;;;1.10;;
44116;SDS011;29781;49.480;8.512;2022-09-27T04:40:21;2.20;;;1.20;;
44116;SDS011;29781;49.480;8.512;2022-09-27T04:42:48;1.45;;;1.00;;
44116;SDS011;29781;49.480;8.512;2022-09-27T04:45:14;2.28;;;1.40;;
44116;SDS011;29781;49.480;8.512;2022-09-27T04:47:45;3.45;;;1.10;;
44116;SDS011;29781;49.480;8.512;2022-09-27T04:50:12;1.88;;;1.13;;
44116;SDS011;29781;49.480;8.512;2022-09-27T04:52:38;3.42;;;0.90;;
44116;SDS011;29781;49.480;8.512;2022-09-27T04:55:04;1.52;;;1.02;;
44116;SDS011;29781;49.480;8.512;2022-09-27T04:57:31;4.47;;;1.27;;
44116;SDS011;29781;49.480;8.512;2022-09-27T04:59:57;3.13;;;0.90;;
44116;SDS011;29781;49.480;8.512;2022-09-27T05:02:27;2.45;;;1.20;;
44116;SDS011;29781;49.480;8.512;2022-09-27T05:04:53;3.38;;;1.10;;
44116;SDS011;29781;49.480;8.512;2022-09-27T05:07:24;1.13;;;0.90;;
44116;SDS011;29781;49.480;8.512;2022-09-27T05:09:50;2.03;;;0.90;;
44116;SDS011;29781;49.480;8.512;2022-09-27T05:12:15;1.00;;;0.80;;
44116;SDS011;29781;49.480;8.512;2022-09-27T05:14:41;1.83;;;0.98;;
44116;SDS011;29781;49.480;8.512;2022-09-27T05:17:07;3.60;;;0.90;;
44116;SDS011;29781;49.480;8.512;2022-09-27T05:19:33;2.90;;;0.90;;
44116;SDS011;29781;49.480;8.512;2022-09-27T05:21:59;2.65;;;1.00;;
44116;SDS011;29781;49.480;8.512;2022-09-27T05:24:25;3.25;;;0.77;;
44116;SDS011;29781;49.480;8.512;2022-09-27T05:26:55;1.98;;;1.00;;
44116;SDS011;29781;49.480;8.512;2022-09-27T05:29:21;2.25;;;1.00;;
44116;SDS011;29781;49.480;8.512;2022-09-27T05:31:46;1.35;;;0.98;;
44116;SDS011;29781;49.480;8.512;2022-09-27T05:34:13;3.45;;;0.80;;
44116;SDS011;29781;49.480;8.512;2022-09-27T05:36:39;3.08;;;1.00;;
44116;SDS011;29781;49.480;8.512;2022-09-27T05:39:05;1.60;;;1.10;;
44116;SDS011;29781;49.480;8.512;2022-09-27T05:41:31;3.20;;;1.00;;
44116;SDS011;29781;49.480;8.512;2022-09-27T05:43:57;1.65;;;1.00;;
44116;SDS011;29781;49.480;8.512;2022-09-27T05:46:23;3.63;;;1.10;;
44116;SDS011;29781;49.480;8.512;2022-09-27T05:48:49;1.10;;;0.80;;
44116;SDS011;29781;49.480;8.512;2022-09-27T05:51:14;1.73;;;0.82;;
44116;SDS011;29781;49.480;8.512;2022-09-27T05:53:40;1.55;;;0.80;;
44116;SDS011;29781;49.480;8.512;2022-09-27T05:56:06;3.25;;;1.15;;
44116;SDS011;29781;49.480;8.512;2022-09-27T05:58:32;0.80;;;0.77;;
44116;SDS011;29781;49.480;8.512;2022-09-27T06:00:58;1.00;;;0.70;;
44116;SDS011;29781;49.480;8.512;2022-09-27T06:03:24;1.00;;;0.90;;
44116;SDS011;29781;49.480;8.512;2022-09-27T06:05:50;1.73;;;0.70;;
44116;SDS011;29781;49.480;8.512;2022-09-27T06:08:15;2.50;;;0.70;;
44116;SDS011;29781;49.480;8.512;2022-09-27T06:10:42;1.08;;;0.70;;
44116;SDS011;29781;49.480;8.512;2022-09-27T06:13:10;2.83;;;0.90;;
44116;SDS011;29781;49.480;8.512;2022-09-27T06:15:40;0.70;;;0.50;;
44116;SDS011;29781;49.480;8.512;2022-09-27T06:18:08;3.58;;;0.82;;
44116;SDS011;29781;49.480;8.512;2022-09-27T06:20:35;3.03;;;0.90;;
44116;SDS011;29781;49.480;8.512;2022-09-27T06:23:12;4.50;;;0.60;;
44116;SDS011;29781;49.480;8.512;2022-09-27T06:25:48;2.08;;;0.85;;
44116;SDS011;29781;49.480;8.512;2022-09-27T06:28:15;1.90;;;0.70;;
44116;SDS011;29781;49.480;8.512;2022-09-27T06:30:42;1.85;;;0.60;;
44116;SDS011;29781;49.480;8.512;2022-09-27T06:33:10;1.00;;;0.60;;
44116;SDS011;29781;49.480;8.512;2022-09-27T06:35:37;1.45;;;0.75;;
44116;SDS011;29781;49.480;8.512;2022-09-27T06:38:05;3.10;;;0.80;;
44116;SDS011;29781;49.480;8.512;2022-09-27T06:40:32;0.80;;;0.73;;
44116;SDS011;29781;49.480;8.512;2022-09-27T06:43:05;1.42;;;0.80;;
44116;SDS011;29781;49.480;8.512;2022-09-27T06:45:33;1.30;;;0.70;;
44116;SDS011;29781;49.480;8.512;2022-09-27T06:48:03;2.95;;;0.90;;
44116;SDS011;29781;49.480;8.512;2022-09-27T06:50:32;2.70;;;0.57;;
44116;SDS011;29781;49.480;8.512;2022-09-27T06:52:59;6.93;;;0.77;;
44116;SDS011;29781;49.480;8.512;2022-09-27T06:55:25;1.65;;;0.55;;
44116;SDS011;29781;49.480;8.512;2022-09-27T06:57:55;1.88;;;0.70;;
44116;SDS011;29781;49.480;8.512;2022-09-27T07:00:40;2.90;;;0.70;;
44116;SDS011;29781;49.480;8.512;2022-09-27T07:03:07;0.77;;;0.47;;
44116;SDS011;29781;49.480;8.512;2022-09-27T07:05:35;0.70;;;0.47;;
44116;SDS011;29781;49.480;8.512;2022-09-27T07:08:02;1.83;;;0.77;;
44116;SDS011;29781;49.480;8.512;2022-09-27T07:10:30;1.83;;;1.02;;
44116;SDS011;29781;49.480;8.512;2022-09-27T07:13:04;1.05;;;0.90;;
44116;SDS011;29781;49.480;8.512;2022-09-27T07:15:32;1.05;;;0.68;;
44116;SDS011;29781;49.480;8.512;2022-09-27T07:18:01;1.42;;;0.47;;
44116;SDS011;29781;49.480;8.512;2022-09-27T07:20:28;2.60;;;0.52;;
44116;SDS011;29781;49.480;8.512;2022-09-27T07:22:54;1.85;;;0.65;;
44116;SDS011;29781;49.480;8.512;2022-09-27T07:25:20;0.60;;;0.40;;
44116;SDS011;29781;49.480;8.512;2022-09-27T07:27:46;0.90;;;0.60;;
44116;SDS011;29781;49.480;8.512;2022-09-27T07:30:12;0.85;;;0.50;;
44116;SDS011;29781;49.480;8.512;2022-09-27T07:32:38;1.48;;;0.60;;
44116;SDS011;29781;49.480;8.512;2022-09-27T07:35:05;0.77;;;0.40;;
44116;SDS011;29781;49.480;8.512;2022-09-27T07:37:32;3.20;;;0.60;;
44116;SDS011;29781;49.480;8.512;2022-09-27T07:39:59;1.27;;;0.60;;
44116;SDS011;29781;49.480;8.512;2022-09-27T07:42:26;1.65;;;0.50;;
44116;SDS011;29781;49.480;8.512;2022-09-27T07:44:55;1.77;;;0.60;;
44116;SDS011;29781;49.480;8.512;2022-09-27T07:47:21;1.90;;;0.57;;
44116;SDS011;29781;49.480;8.512;2022-09-27T07:49:48;1.20;;;0.50;;
44116;SDS011;29781;49.480;8.512;2022-09-27T07:52:16;1.25;;;0.60;;
44116;SDS011;29781;49.480;8.512;2022-09-27T07:54:41;1.90;;;0.73;;
44116;SDS011;29781;49.480;8.512;2022-09-27T07:57:07;1.50;;;0.65;;
44116;SDS011;29781;49.480;8.512;2022-09-27T07:59:33;2.10;;;0.70;;
44116;SDS011;29781;49.480;8.512;2022-09-27T08:01:58;0.85;;;0.50;;
44116;SDS011;29781;49.480;8.512;2022-09-27T08:04:24;1.15;;;0.68;;
44116;SDS011;29781;49.480;8.512;2022-09-27T08:06:50;0.80;;;0.50;;
44116;SDS011;29781;49.480;8.512;2022-09-27T08:09:15;2.10;;;0.85;;
44116;SDS011;29781;49.480;8.512;2022-09-27T08:11:41;1.65;;;0.68;;
44116;SDS011;29781;49.480;8.512;2022-09-27T08:14:08;1.15;;;0.60;;
44116;SDS011;29781;49.480;8.512;2022-09-27T08:16:34;1.08;;;0.70;;
44116;SDS011;29781;49.480;8.512;2022-09-27T08:19:00;1.73;;;0.70;;
44116;SDS011;29781;49.480;8.512;2022-09-27T08:21:26;2.35;;;0.70;;
44116;SDS011;29781;49.480;8.512;2022-09-27T08:23:51;0.50;;;0.50;;
44116;SDS011;29781;49.480;8.512;2022-09-27T08:26:18;0.50;;;0.47;;
44116;SDS011;29781;49.480;8.512;2022-09-27T08:28:45;4.22;;;0.98;;
44116;SDS011;29781;49.480;8.512;2022-09-27T08:31:11;0.50;;;0.50;;
44116;SDS011;29781;49.480;8.512;2022-09-27T08:33:37;1.00;;;0.60;;
44116;SDS011;29781;49.480;8.512;2022-09-27T08:36:03;0.70;;;0.55;;
44116;SDS011;29781;49.480;8.512;2022-09-27T08:41:20;1.63;;;0.70;;
44116;SDS011;29781;49.480;8.512;2022-09-27T08:44:06;1.02;;;0.60;;
44116;SDS011;29781;49.480;8.512;2022-09-27T08:46:55;0.80;;;0.65;;
44116;SDS011;29781;49.480;8.512;2022-09-27T08:52:21;0.90;;;0.85;;
44116;SDS011;29781;49.480;8.512;2022-09-27T08:54:52;1.50;;;0.85;;
44116;SDS011;29781;49.480;8.512;2022-09-27T08:57:21;1.77;;;0.75;;
44116;SDS011;29781;49.480;8.512;2022-09-27T09:00:05;0.63;;;0.60;;
44116;SDS011;29781;49.480;8.512;2022-09-27T09:02:35;1.45;;;0.80;;
44116;SDS011;29781;49.480;8.512;2022-09-27T09:05:05;1.23;;;1.00;;
44116;SDS011;29781;49.480;8.512;2022-09-27T09:08:14;1.92;;;1.20;;
44116;SDS011;29781;49.480;8.512;2022-09-27T09:10:51;3.92;;;1.30;;
44116;SDS011;29781;49.480;8.512;2022-09-27T09:22:32;3.33;;;1.30;;
44116;SDS011;29781;49.480;8.512;2022-09-27T09:25:21;2.45;;;1.30;;
44116;SDS011;29781;49.480;8.512;2022-09-27T09:33:51;2.25;;;1.10;;
44116;SDS011;29781;49.480;8.512;2022-09-27T09:39:18;5.15;;;2.35;;
44116;SDS011;29781;49.480;8.512;2022-09-27T09:44:24;1.70;;;1.60;;
44116;SDS011;29781;49.480;8.512;2022-09-27T09:46:54;1.98;;;1.40;;
44116;SDS011;29781;49.480;8.512;2022-09-27T09:49:28;3.38;;;1.70;;
44116;SDS011;29781;49.480;8.512;2022-09-27T09:52:01;2.42;;;1.80;;
44116;SDS011;29781;49.480;8.512;2022-09-27T09:54:46;1.83;;;1.73;;
44116;SDS011;29781;49.480;8.512;2022-09-27T09:57:32;2.33;;;1.65;;
44116;SDS011;29781;49.480;8.512;2022-09-27T10:00:24;1.70;;;1.60;;
44116;SDS011;29781;49.480;8.512;2022-09-27T10:02:50;4.72;;;2.15;;
44116;SDS011;29781;49.480;8.512;2022-09-27T10:05:19;3.60;;;2.00;;
44116;SDS011;29781;49.480;8.512;2022-09-27T10:07:50;2.22;;;1.90;;
44116;SDS011;29781;49.480;8.512;2022-09-27T10:10:20;3.28;;;1.90;;
44116;SDS011;29781;49.480;8.512;2022-09-27T10:12:46;2.83;;;1.50;;
44116;SDS011;29781;49.480;8.512;2022-09-27T10:15:14;2.85;;;1.80;;
44116;SDS011;29781;49.480;8.512;2022-09-27T10:17:44;5.07;;;1.92;;
44116;SDS011;29781;49.480;8.512;2022-09-27T10:23:14;2.80;;;1.85;;
44116;SDS011;29781;49.480;8.512;2022-09-27T10:25:52;2.58;;;1.75;;
44116;SDS011;29781;49.480;8.512;2022-09-27T10:31:11;1.38;;;1.20;;
44116;SDS011;29781;49.480;8.512;2022-09-27T10:33:39;1.27;;;1.10;;
44116;SDS011;29781;49.480;8.512;2022-09-27T10:36:27;2.00;;;1.40;;
44116;SDS011;29781;49.480;8.512;2022-09-27T10:41:23;4.25;;;1.60;;
44116;SDS011;29781;49.480;8.512;2022-09-27T10:46:45;4.50;;;1.50;;
44116;SDS011;29781;49.480;8.512;2022-09-27T10:49:26;2.47;;;1.70;;
44116;SDS011;29781;49.480;8.512;2022-09-27T10:51:59;2.15;;;1.70;;
44116;SDS011;29781;49.480;8.512;2022-09-27T10:57:18;1.30;;;0.90;;
44116;SDS011;29781;49.480;8.512;2022-09-27T10:59:53;1.15;;;0.80;;
44116;SDS011;29781;49.480;8.512;2022-09-27T11:02:31;2.17;;;1.20;;
44116;SDS011;29781;49.480;8.512;2022-09-27T11:05:41;1.73;;;1.15;;
44116;SDS011;29781;49.480;8.512;2022-09-27T11:07:52;1.20;;;0.80;;
44116;SDS011;29781;49.480;8.512;2022-09-27T11:10:29;2.20;;;1.10;;
44116;SDS011;29781;49.480;8.512;2022-09-27T11:21:17;2.40;;;1.20;;
44116;SDS011;29781;49.480;8.512;2022-09-27T11:26:28;2.45;;;1.23;;
44116;SDS011;29781;49.480;8.512;2022-09-27T11:29:09;7.53;;;1.27;;
44116;SDS011;29781;49.480;8.512;2022-09-27T11:31:57;2.88;;;1.50;;
44116;SDS011;29781;49.480;8.512;2022-09-27T11:34:58;2.60;;;1.60;;
44116;SDS011;29781;49.480;8.512;2022-09-27T11:51:56;4.60;;;1.92;;
44116;SDS011;29781;49.480;8.512;2022-09-27T11:54:54;1.98;;;1.48;;
44116;SDS011;29781;49.480;8.512;2022-09-27T11:57:41;5.53;;;1.58;;
44116;SDS011;29781;49.480;8.512;2022-09-27T12:00:16;3.97;;;1.60;;
44116;SDS011;29781;49.480;8.512;2022-09-27T12:09:10;4.28;;;2.40;;
44116;SDS011;29781;49.480;8.512;2022-09-27T12:11:28;1.95;;;1.67;;
44116;SDS011;29781;49.480;8.512;2022-09-27T12:16:54;3.00;;;1.60;;
44116;SDS011;29781;49.480;8.512;2022-09-27T12:19:23;3.28;;;2.00;;
44116;SDS011;29781;49.480;8.512;2022-09-27T12:24:22;1.98;;;1.70;;
44116;SDS011;29781;49.480;8.512;2022-09-27T12:26:53;1.60;;;1.20;;
44116;SDS011;29781;49.480;8.512;2022-09-27T12:29:35;2.28;;;1.67;;
44116;SDS011;29781;49.480;8.512;2022-09-27T12:37:57;1.70;;;1.02;;
44116;SDS011;29781;49.480;8.512;2022-09-27T12:40:28;6.18;;;1.40;;
44116;SDS011;29781;49.480;8.512;2022-09-27T12:42:55;1.63;;;1.30;;
44116;SDS011;29781;49.480;8.512;2022-09-27T12:46:18;1.65;;;1.55;;
44116;SDS011;29781;49.480;8.512;2022-09-27T12:48:24;1.83;;;1.15;;
44116;SDS011;29781;49.480;8.512;2022-09-27T12:51:09;2.30;;;1.50;;
44116;SDS011;29781;49.480;8.512;2022-09-27T12:53:47;0.98;;;0.82;;
44116;SDS011;29781;49.480;8.512;2022-09-27T13:07:20;1.58;;;1.17;;
44116;SDS011;29781;49.480;8.512;2022-09-27T13:10:11;3.40;;;1.48;;
44116;SDS011;29781;49.480;8.512;2022-09-27T13:12:40;1.00;;;0.90;;
44116;SDS011;29781;49.480;8.512;2022-09-27T13:15:25;1.60;;;1.00;;
44116;SDS011;29781;49.480;8.512;2022-09-27T13:17:55;5.35;;;1.20;;
44116;SDS011;29781;49.480;8.512;2022-09-27T13:22:54;3.72;;;1.10;;
44116;SDS011;29781;49.480;8.512;2022-09-27T13:30:57;2.55;;;1.40;;
44116;SDS011;29781;49.480;8.512;2022-09-27T13:33:44;2.50;;;1.05;;
44116;SDS011;29781;49.480;8.512;2022-09-27T13:47:02;5.10;;;1.05;;
44116;SDS011;29781;49.480;8.512;2022-09-27T13:49:39;2.88;;;1.02;;
44116;SDS011;29781;49.480;8.512;2022-09-27T13:52:24;5.55;;;1.02;;
44116;SDS011;29781;49.480;8.512;2022-09-27T13:55:02;3.95;;;1.20;;
44116;SDS011;29781;49.480;8.512;2022-09-27T13:57:56;3.67;;;0.80;;
44116;SDS011;29781;49.480;8.512;2022-09-27T14:00:47;1.70;;;0.82;;
44116;SDS011;29781;49.480;8.512;2022-09-27T14:03:26;2.72;;;0.90;;
44116;SDS011;29781;49.480;8.512;2022-09-27T14:06:20;3.28;;;1.20;;
44116;SDS011;29781;49.480;8.512;2022-09-27T14:08:56;2.00;;;0.77;;
44116;SDS011;29781;49.480;8.512;2022-09-27T14:11:27;5.95;;;0.82;;
44116;SDS011;29781;49.480;8.512;2022-09-27T14:14:04;0.70;;;0.70;;
44116;SDS011;29781;49.480;8.512;2022-09-27T14:16:40;2.35;;;0.70;;
44116;SDS011;29781;49.480;8.512;2022-09-27T14:19:17;1.00;;;0.80;;
44116;SDS011;29781;49.480;8.512;2022-09-27T14:21:45;1.35;;;0.90;;
44116;SDS011;29781;49.480;8.512;2022-09-27T14:24:26;1.98;;;0.88;;
44116;SDS011;29781;49.480;8.512;2022-09-27T14:27:05;1.20;;;1.10;;
44116;SDS011;29781;49.480;8.512;2022-09-27T14:29:38;1.95;;;1.10;;
44116;SDS011;29781;49.480;8.512;2022-09-27T14:32:13;1.92;;;1.05;;
44116;SDS011;29781;49.480;8.512;2022-09-27T14:34:41;3.08;;;1.20;;
44116;SDS011;29781;49.480;8.512;2022-09-27T14:40:03;1.88;;;0.90;;
44116;SDS011;29781;49.480;8.512;2022-09-27T14:42:33;1.83;;;1.10;;
44116;SDS011;29781;49.480;8.512;2022-09-27T14:45:05;1.35;;;0.90;;
44116;SDS011;29781;49.480;8.512;2022-09-27T14:47:46;1.13;;;1.05;;
44116;SDS011;29781;49.480;8.512;2022-09-27T14:50:21;1.65;;;0.90;;
44116;SDS011;29781;49.480;8.512;2022-09-27T14:52:48;1.75;;;0.90;;
44116;SDS011;29781;49.480;8.512;2022-09-27T14:57:55;2.15;;;1.00;;
44116;SDS011;29781;49.480;8.512;2022-09-27T15:00:24;2.83;;;1.00;;
44116;SDS011;29781;49.480;8.512;2022-09-27T15:02:56;1.40;;;0.82;;
44116;SDS011;29781;49.480;8.512;2022-09-27T15:05:25;2.42;;;0.90;;
44116;SDS011;29781;49.480;8.512;2022-09-27T15:07:52;1.23;;;0.75;;
44116;SDS011;29781;49.480;8.512;2022-09-27T15:10:21;1.00;;;0.80;;
44116;SDS011;29781;49.480;8.512;2022-09-27T15:12:51;1.33;;;0.60;;
44116;SDS011;29781;49.480;8.512;2022-09-27T15:15:22;0.98;;;0.57;;
44116;SDS011;29781;49.480;8.512;2022-09-27T15:17:50;1.95;;;0.68;;
44116;SDS011;29781;49.480;8.512;2022-09-27T15:20:26;1.00;;;0.90;;
44116;SDS011;29781;49.480;8.512;2022-09-27T15:22:53;1.58;;;0.80;;
44116;SDS011;29781;49.480;8.512;2022-09-27T15:27:56;0.98;;;0.93;;
44116;SDS011;29781;49.480;8.512;2022-09-27T15:30:25;4.18;;;1.55;;
44116;SDS011;29781;49.480;8.512;2022-09-27T15:32:53;1.77;;;1.00;;
44116;SDS011;29781;49.480;8.512;2022-09-27T15:35:30;2.85;;;1.25;;
44116;SDS011;29781;49.480;8.512;2022-09-27T15:40:55;2.55;;;0.88;;
44116;SDS011;29781;49.480;8.512;2022-09-27T15:45:56;0.90;;;0.85;;
44116;SDS011;29781;49.480;8.512;2022-09-27T15:48:26;1.20;;;1.00;;
44116;SDS011;29781;49.480;8.512;2022-09-27T15:50:52;1.27;;;1.02;;
44116;SDS011;29781;49.480;8.512;2022-09-27T15:56:02;3.35;;;1.20;;
44116;SDS011;29781;49.480;8.512;2022-09-27T15:58:30;1.67;;;1.10;;
44116;SDS011;29781;49.480;8.512;2022-09-27T16:01:01;1.33;;;1.10;;
44116;SDS011;29781;49.480;8.512;2022-09-27T16:03:29;2.55;;;1.27;;
44116;SDS011;29781;49.480;8.512;2022-09-27T16:05:56;2.47;;;1.00;;
44116;SDS011;29781;49.480;8.512;2022-09-27T16:08:23;3.20;;;1.38;;
44116;SDS011;29781;49.480;8.512;2022-09-27T16:10:50;2.25;;;1.45;;
44116;SDS011;29781;49.480;8.512;2022-09-27T16:13:19;1.73;;;1.50;;
44116;SDS011;29781;49.480;8.512;2022-09-27T16:15:44;1.33;;;1.23;;
44116;SDS011;29781;49.480;8.512;2022-09-27T16:18:11;2.33;;;1.17;;
44116;SDS011;29781;49.480;8.512;2022-09-27T16:20:37;2.33;;;1.30;;
44116;SDS011;29781;49.480;8.512;2022-09-27T16:23:03;1.70;;;1.13;;
44116;SDS011;29781;49.480;8.512;2022-09-27T16:25:29;1.85;;;1.10;;
44116;SDS011;29781;49.480;8.512;2022-09-27T16:27:58;2.42;;;1.08;;
44116;SDS011;29781;49.480;8.512;2022-09-27T16:30:24;3.00;;;1.13;;
44116;SDS011;29781;49.480;8.512;2022-09-27T16:32:51;1.98;;;1.13;;
44116;SDS011;29781;49.480;8.512;2022-09-27T16:35:17;2.65;;;1.35;;
44116;SDS011;29781;49.480;8.512;2022-09-27T16:37:45;2.33;;;1.13;;
44116;SDS011;29781;49.480;8.512;2022-09-27T16:40:12;2.13;;;1.35;;
44116;SDS011;29781;49.480;8.512;2022-09-27T16:42:39;2.80;;;1.20;;
44116;SDS011;29781;49.480;8.512;2022-09-27T16:45:06;2.45;;;1.48;;
44116;SDS011;29781;49.480;8.512;2022-09-27T16:47:32;2.65;;;1.25;;
44116;SDS011;29781;49.480;8.512;2022-09-27T16:49:59;1.92;;;1.30;;
44116;SDS011;29781;49.480;8.512;2022-09-27T16:52:43;1.55;;;1.38;;
44116;SDS011;29781;49.480;8.512;2022-09-27T16:55:13;1.60;;;1.30;;
44116;SDS011;29781;49.480;8.512;2022-09-27T16:57:42;1.95;;;1.27;;
44116;SDS011;29781;49.480;8.512;2022-09-27T17:00:08;1.50;;;1.10;;
44116;SDS011;29781;49.480;8.512;2022-09-27T17:02:34;2.42;;;0.90;;
44116;SDS011;29781;49.480;8.512;2022-09-27T17:05:00;0.95;;;0.80;;
44116;SDS011;29781;49.480;8.512;2022-09-27T17:07:25;0.73;;;0.70;;
44116;SDS011;29781;49.480;8.512;2022-09-27T17:09:51;1.02;;;0.70;;
44116;SDS011;29781;49.480;8.512;2022-09-27T17:12:17;1.55;;;0.75;;
44116;SDS011;29781;49.480;8.512;2022-09-27T17:14:43;4.70;;;0.90;;
44116;SDS011;29781;49.480;8.512;2022-09-27T17:17:08;0.85;;;0.77;;
44116;SDS011;29781;49.480;8.512;2022-09-27T17:19:34;1.23;;;0.70;;
44116;SDS011;29781;49.480;8.512;2022-09-27T17:22:01;2.00;;;0.70;;
44116;SDS011;29781;49.480;8.512;2022-09-27T17:24:27;0.90;;;0.70;;
44116;SDS011;29781;49.480;8.512;2022-09-27T17:26:53;0.88;;;0.65;;
44116;SDS011;29781;49.480;8.512;2022-09-27T17:29:19;0.82;;;0.55;;
44116;SDS011;29781;49.480;8.512;2022-09-27T17:31:45;1.08;;;0.80;;
44116;SDS011;29781;49.480;8.512;2022-09-27T17:34:11;2.60;;;0.75;;
44116;SDS011;29781;49.480;8.512;2022-09-27T17:36:41;1.17;;;0.80;;
44116;SDS011;29781;49.480;8.512;2022-09-27T17:39:12;4.97;;;1.38;;
44116;SDS011;29781;49.480;8.512;2022-09-27T17:41:38;2.30;;;1.30;;
44116;SDS011;29781;49.480;8.512;2022-09-27T17:44:04;1.80;;;1.63;;
44116;SDS011;29781;49.480;8.512;2022-09-27T17:46:31;1.35;;;1.10;;
44116;SDS011;29781;49.480;8.512;2022-09-27T17:49:01;1.45;;;0.80;;
44116;SDS011;29781;49.480;8.512;2022-09-27T17:51:46;1.10;;;0.88;;
44116;SDS011;29781;49.480;8.512;2022-09-27T17:54:16;2.88;;;0.93;;
44116;SDS011;29781;49.480;8.512;2022-09-27T17:56:44;1.65;;;1.10;;
44116;SDS011;29781;49.480;8.512;2022-09-27T17:59:11;1.52;;;1.17;;
44116;SDS011;29781;49.480;8.512;2022-09-27T18:01:39;1.50;;;1.15;;
44116;SDS011;29781;49.480;8.512;2022-09-27T18:04:06;1.42;;;1.10;;